sensor_id;sensor_type;location;lat;lon;timestamp;temperature;humidity
563;DHT22;266;49.514;8.294;2023-11-18T00:00:54;6.90;99.90
563;DHT22;266;49.514;8.294;2023-11-18T00:03:23;6.80;99.90
563;DHT22;266;49.514;8.294;2023-11-18T00:05:51;6.80;99.90
563;DHT22;266;49.514;8.294;2023-11-18T00:08:19;6.80;99.90
563;DHT22;266;49.514;8.294;2023-11-18T00:10:47;6.70;99.90
563;DHT22;266;49.514;8.294;2023-11-18T00:13:15;6.70;99.90
563;DHT22;266;49.514;8.294;2023-11-18T00:15:43;6.60;99.90
563;DHT22;266;49.514;8.294;2023-11-18T00:18:12;6.60;99.90
563;DHT22;266;49.514;8.294;2023-11-18T00:20:42;6.50;99.90
563;DHT22;266;49.514;8.294;2023-11-18T00:23:10;6.40;99.90
563;DHT22;266;49.514;8.294;2023-11-18T00:25:38;6.30;99.90
563;DHT22;266;49.514;8.294;2023-11-18T00:28:07;6.30;99.90
563;DHT22;266;49.514;8.294;2023-11-18T00:30:35;6.20;99.90
563;DHT22;266;49.514;8.294;2023-11-18T00:33:05;6.10;99.90
563;DHT22;266;49.514;8.294;2023-11-18T00:35:33;6.10;99.90
563;DHT22;266;49.514;8.294;2023-11-18T00:38:02;6.00;99.90
563;DHT22;266;49.514;8.294;2023-11-18T00:40:30;5.80;99.90
563;DHT22;266;49.514;8.294;2023-11-18T00:42:59;5.70;99.90
563;DHT22;266;49.514;8.294;2023-11-18T00:45:27;5.70;99.90
563;DHT22;266;49.514;8.294;2023-11-18T00:47:55;5.60;99.90
563;DHT22;266;49.514;8.294;2023-11-18T00:50:23;5.60;99.90
563;DHT22;266;49.514;8.294;2023-11-18T00:52:51;5.60;99.90
563;DHT22;266;49.514;8.294;2023-11-18T00:55:21;5.50;99.90
563;DHT22;266;49.514;8.294;2023-11-18T00:57:49;5.50;99.90
563;DHT22;266;49.514;8.294;2023-11-18T01:00:16;5.40;99.90
563;DHT22;266;49.514;8.294;2023-11-18T01:02:49;5.40;99.90
563;DHT22;266;49.514;8.294;2023-11-18T01:05:17;5.40;99.90
563;DHT22;266;49.514;8.294;2023-11-18T01:07:46;5.30;99.90
563;DHT22;266;49.514;8.294;2023-11-18T01:10:14;5.10;99.90
563;DHT22;266;49.514;8.294;2023-11-18T01:12:43;5.10;99.90
563;DHT22;266;49.514;8.294;2023-11-18T01:15:12;5.00;99.90
563;DHT22;266;49.514;8.294;2023-11-18T01:17:41;5.00;99.90
563;DHT22;266;49.514;8.294;2023-11-18T01:20:10;5.00;99.90
563;DHT22;266;49.514;8.294;2023-11-18T01:22:40;5.00;99.90
563;DHT22;266;49.514;8.294;2023-11-18T01:25:10;5.00;99.90
563;DHT22;266;49.514;8.294;2023-11-18T01:27:39;4.90;99.90
563;DHT22;266;49.514;8.294;2023-11-18T01:30:10;4.90;99.90
563;DHT22;266;49.514;8.294;2023-11-18T01:32:38;4.90;99.90
563;DHT22;266;49.514;8.294;2023-11-18T01:35:08;4.80;99.90
563;DHT22;266;49.514;8.294;2023-11-18T01:37:37;4.80;99.90
563;DHT22;266;49.514;8.294;2023-11-18T01:40:06;4.80;99.90
563;DHT22;266;49.514;8.294;2023-11-18T01:42:35;4.90;99.90
563;DHT22;266;49.514;8.294;2023-11-18T01:45:04;5.00;99.90
563;DHT22;266;49.514;8.294;2023-11-18T01:47:40;4.90;99.90
563;DHT22;266;49.514;8.294;2023-11-18T01:50:10;4.70;99.90
563;DHT22;266;49.514;8.294;2023-11-18T01:52:39;4.60;99.90
563;DHT22;266;49.514;8.294;2023-11-18T01:55:12;4.60;99.90
563;DHT22;266;49.514;8.294;2023-11-18T01:57:40;4.60;99.90
563;DHT22;266;49.514;8.294;2023-11-18T02:00:12;4.50;99.90
563;DHT22;266;49.514;8.294;2023-11-18T02:02:41;4.50;99.90
563;DHT22;266;49.514;8.294;2023-11-18T02:05:10;4.50;99.90
563;DHT22;266;49.514;8.294;2023-11-18T02:07:39;4.40;99.90
563;DHT22;266;49.514;8.294;2023-11-18T02:10:08;4.40;99.90
563;DHT22;266;49.514;8.294;2023-11-18T02:12:44;4.40;99.90
563;DHT22;266;49.514;8.294;2023-11-18T02:15:14;4.40;99.90
563;DHT22;266;49.514;8.294;2023-11-18T02:17:46;4.40;99.90
563;DHT22;266;49.514;8.294;2023-11-18T02:20:16;4.30;99.90
563;DHT22;266;49.514;8.294;2023-11-18T02:22:47;4.30;99.90
563;DHT22;266;49.514;8.294;2023-11-18T02:25:16;4.30;99.90
563;DHT22;266;49.514;8.294;2023-11-18T02:27:46;4.20;99.90
563;DHT22;266;49.514;8.294;2023-11-18T02:30:15;4.20;99.90
563;DHT22;266;49.514;8.294;2023-11-18T02:32:47;4.20;99.90
563;DHT22;266;49.514;8.294;2023-11-18T02:35:20;4.10;99.90
563;DHT22;266;49.514;8.294;2023-11-18T02:37:53;4.10;99.90
563;DHT22;266;49.514;8.294;2023-11-18T02:40:28;4.10;99.90
563;DHT22;266;49.514;8.294;2023-11-18T02:43:00;4.10;99.90
563;DHT22;266;49.514;8.294;2023-11-18T02:45:32;4.10;99.90
563;DHT22;266;49.514;8.294;2023-11-18T02:48:01;4.20;99.90
563;DHT22;266;49.514;8.294;2023-11-18T02:50:29;4.30;99.90
563;DHT22;266;49.514;8.294;2023-11-18T02:52:58;4.30;99.90
563;DHT22;266;49.514;8.294;2023-11-18T02:55:26;4.40;99.90
563;DHT22;266;49.514;8.294;2023-11-18T02:57:54;4.40;99.90
563;DHT22;266;49.514;8.294;2023-11-18T03:00:25;4.40;99.90
563;DHT22;266;49.514;8.294;2023-11-18T03:02:53;4.40;99.90
563;DHT22;266;49.514;8.294;2023-11-18T03:05:21;4.50;99.90
563;DHT22;266;49.514;8.294;2023-11-18T03:07:49;4.50;99.90
563;DHT22;266;49.514;8.294;2023-11-18T03:10:20;4.50;99.90
563;DHT22;266;49.514;8.294;2023-11-18T03:12:49;4.50;99.90
563;DHT22;266;49.514;8.294;2023-11-18T03:15:17;4.40;99.90
563;DHT22;266;49.514;8.294;2023-11-18T03:17:47;4.40;99.90
563;DHT22;266;49.514;8.294;2023-11-18T03:20:16;4.40;99.90
563;DHT22;266;49.514;8.294;2023-11-18T03:22:44;4.40;99.90
563;DHT22;266;49.514;8.294;2023-11-18T03:25:13;4.40;99.90
563;DHT22;266;49.514;8.294;2023-11-18T03:27:41;4.50;99.90
563;DHT22;266;49.514;8.294;2023-11-18T03:30:10;4.50;99.90
563;DHT22;266;49.514;8.294;2023-11-18T03:32:38;4.60;99.90
563;DHT22;266;49.514;8.294;2023-11-18T03:35:09;4.60;99.90
563;DHT22;266;49.514;8.294;2023-11-18T03:37:38;4.60;99.90
563;DHT22;266;49.514;8.294;2023-11-18T03:40:09;4.70;99.90
563;DHT22;266;49.514;8.294;2023-11-18T03:42:38;4.70;99.90
563;DHT22;266;49.514;8.294;2023-11-18T03:45:07;4.70;99.90
563;DHT22;266;49.514;8.294;2023-11-18T03:47:36;4.80;99.90
563;DHT22;266;49.514;8.294;2023-11-18T03:50:05;4.80;99.90
563;DHT22;266;49.514;8.294;2023-11-18T03:52:37;4.90;99.90
563;DHT22;266;49.514;8.294;2023-11-18T03:55:06;4.90;99.90
563;DHT22;266;49.514;8.294;2023-11-18T03:57:34;4.90;99.90
563;DHT22;266;49.514;8.294;2023-11-18T04:00:04;4.90;99.90
563;DHT22;266;49.514;8.294;2023-11-18T04:02:33;4.90;99.90
563;DHT22;266;49.514;8.294;2023-11-18T04:05:03;4.90;99.90
563;DHT22;266;49.514;8.294;2023-11-18T04:07:31;4.90;99.90
563;DHT22;266;49.514;8.294;2023-11-18T04:10:01;4.90;99.90
563;DHT22;266;49.514;8.294;2023-11-18T04:12:32;4.90;99.90
563;DHT22;266;49.514;8.294;2023-11-18T04:15:00;4.80;99.90
563;DHT22;266;49.514;8.294;2023-11-18T04:17:28;4.80;99.90
563;DHT22;266;49.514;8.294;2023-11-18T04:19:56;4.80;99.90
563;DHT22;266;49.514;8.294;2023-11-18T04:22:24;4.80;99.90
563;DHT22;266;49.514;8.294;2023-11-18T04:24:52;4.80;99.90
563;DHT22;266;49.514;8.294;2023-11-18T04:27:22;4.70;99.90
563;DHT22;266;49.514;8.294;2023-11-18T04:29:50;4.70;99.90
563;DHT22;266;49.514;8.294;2023-11-18T04:32:18;4.70;99.90
563;DHT22;266;49.514;8.294;2023-11-18T04:34:46;4.70;99.90
563;DHT22;266;49.514;8.294;2023-11-18T04:37:16;4.70;99.90
563;DHT22;266;49.514;8.294;2023-11-18T04:39:44;4.70;99.90
563;DHT22;266;49.514;8.294;2023-11-18T04:42:12;4.70;99.90
563;DHT22;266;49.514;8.294;2023-11-18T04:44:43;4.70;99.90
563;DHT22;266;49.514;8.294;2023-11-18T04:47:11;4.70;99.90
563;DHT22;266;49.514;8.294;2023-11-18T04:49:43;4.70;99.90
563;DHT22;266;49.514;8.294;2023-11-18T04:52:11;4.60;99.90
563;DHT22;266;49.514;8.294;2023-11-18T04:54:39;4.60;99.90
563;DHT22;266;49.514;8.294;2023-11-18T04:57:07;4.60;99.90
563;DHT22;266;49.514;8.294;2023-11-18T04:59:35;4.60;99.90
563;DHT22;266;49.514;8.294;2023-11-18T05:02:05;4.70;99.90
563;DHT22;266;49.514;8.294;2023-11-18T05:04:33;4.70;99.90
563;DHT22;266;49.514;8.294;2023-11-18T05:07:03;4.60;99.90
563;DHT22;266;49.514;8.294;2023-11-18T05:09:33;4.70;99.90
563;DHT22;266;49.514;8.294;2023-11-18T05:12:02;4.60;99.90
563;DHT22;266;49.514;8.294;2023-11-18T05:14:30;4.60;99.90
563;DHT22;266;49.514;8.294;2023-11-18T05:16:59;4.70;99.90
563;DHT22;266;49.514;8.294;2023-11-18T05:19:29;4.70;99.90
563;DHT22;266;49.514;8.294;2023-11-18T05:21:58;4.70;99.90
563;DHT22;266;49.514;8.294;2023-11-18T05:24:26;4.70;99.90
563;DHT22;266;49.514;8.294;2023-11-18T05:26:54;4.70;99.90
563;DHT22;266;49.514;8.294;2023-11-18T05:29:22;4.70;99.90
563;DHT22;266;49.514;8.294;2023-11-18T05:31:51;4.70;99.90
563;DHT22;266;49.514;8.294;2023-11-18T05:34:19;4.70;99.90
563;DHT22;266;49.514;8.294;2023-11-18T05:36:48;4.70;99.90
563;DHT22;266;49.514;8.294;2023-11-18T05:39:20;4.70;99.90
563;DHT22;266;49.514;8.294;2023-11-18T05:41:51;4.70;99.90
563;DHT22;266;49.514;8.294;2023-11-18T05:44:19;4.70;99.90
563;DHT22;266;49.514;8.294;2023-11-18T05:46:56;4.60;99.90
563;DHT22;266;49.514;8.294;2023-11-18T05:49:24;4.60;99.90
563;DHT22;266;49.514;8.294;2023-11-18T05:51:53;4.60;99.90
563;DHT22;266;49.514;8.294;2023-11-18T05:54:21;4.60;99.90
563;DHT22;266;49.514;8.294;2023-11-18T05:56:49;4.60;99.90
563;DHT22;266;49.514;8.294;2023-11-18T05:59:17;4.50;99.90
563;DHT22;266;49.514;8.294;2023-11-18T06:01:45;4.50;99.90
563;DHT22;266;49.514;8.294;2023-11-18T06:04:14;4.50;99.90
563;DHT22;266;49.514;8.294;2023-11-18T06:06:42;4.50;99.90
563;DHT22;266;49.514;8.294;2023-11-18T06:09:11;4.50;99.90
563;DHT22;266;49.514;8.294;2023-11-18T06:11:47;4.50;99.90
563;DHT22;266;49.514;8.294;2023-11-18T06:14:16;4.60;99.90
563;DHT22;266;49.514;8.294;2023-11-18T06:16:44;4.70;99.90
563;DHT22;266;49.514;8.294;2023-11-18T06:19:14;4.70;99.90
563;DHT22;266;49.514;8.294;2023-11-18T06:21:42;4.80;99.90
563;DHT22;266;49.514;8.294;2023-11-18T06:24:11;4.90;99.90
563;DHT22;266;49.514;8.294;2023-11-18T06:26:41;4.90;99.90
563;DHT22;266;49.514;8.294;2023-11-18T06:29:09;4.90;99.90
563;DHT22;266;49.514;8.294;2023-11-18T06:31:39;5.00;99.90
563;DHT22;266;49.514;8.294;2023-11-18T06:34:08;5.20;99.90
563;DHT22;266;49.514;8.294;2023-11-18T06:36:36;5.20;99.90
563;DHT22;266;49.514;8.294;2023-11-18T06:39:04;5.30;99.90
563;DHT22;266;49.514;8.294;2023-11-18T06:41:35;5.30;99.90
563;DHT22;266;49.514;8.294;2023-11-18T06:44:06;5.30;99.90
563;DHT22;266;49.514;8.294;2023-11-18T06:46:39;5.30;99.90
563;DHT22;266;49.514;8.294;2023-11-18T06:49:08;5.40;99.90
563;DHT22;266;49.514;8.294;2023-11-18T06:51:38;5.40;99.90
563;DHT22;266;49.514;8.294;2023-11-18T06:54:06;5.50;99.90
563;DHT22;266;49.514;8.294;2023-11-18T06:56:40;5.60;99.90
563;DHT22;266;49.514;8.294;2023-11-18T06:59:10;5.60;99.90
563;DHT22;266;49.514;8.294;2023-11-18T07:01:40;5.60;99.90
563;DHT22;266;49.514;8.294;2023-11-18T07:04:10;5.60;99.90
563;DHT22;266;49.514;8.294;2023-11-18T07:06:38;5.70;99.90
563;DHT22;266;49.514;8.294;2023-11-18T07:09:07;5.70;99.90
563;DHT22;266;49.514;8.294;2023-11-18T07:11:41;5.60;99.90
563;DHT22;266;49.514;8.294;2023-11-18T07:14:09;5.60;99.90
563;DHT22;266;49.514;8.294;2023-11-18T07:16:38;5.60;99.90
563;DHT22;266;49.514;8.294;2023-11-18T07:19:07;5.60;99.90
563;DHT22;266;49.514;8.294;2023-11-18T07:21:37;5.60;99.90
563;DHT22;266;49.514;8.294;2023-11-18T07:24:06;5.60;99.90
563;DHT22;266;49.514;8.294;2023-11-18T07:26:34;5.50;99.90
563;DHT22;266;49.514;8.294;2023-11-18T07:29:04;5.50;99.90
563;DHT22;266;49.514;8.294;2023-11-18T07:31:34;5.50;99.90
563;DHT22;266;49.514;8.294;2023-11-18T07:34:03;5.50;99.90
563;DHT22;266;49.514;8.294;2023-11-18T07:36:33;5.50;99.90
563;DHT22;266;49.514;8.294;2023-11-18T07:39:01;5.50;99.90
563;DHT22;266;49.514;8.294;2023-11-18T07:41:31;5.50;99.90
563;DHT22;266;49.514;8.294;2023-11-18T07:44:00;5.50;99.90
563;DHT22;266;49.514;8.294;2023-11-18T07:46:30;5.50;99.90
563;DHT22;266;49.514;8.294;2023-11-18T07:48:58;5.50;99.90
563;DHT22;266;49.514;8.294;2023-11-18T07:51:28;5.50;99.90
563;DHT22;266;49.514;8.294;2023-11-18T07:53:56;5.50;99.90
563;DHT22;266;49.514;8.294;2023-11-18T07:56:25;5.50;99.90
563;DHT22;266;49.514;8.294;2023-11-18T07:58:53;5.50;99.90
563;DHT22;266;49.514;8.294;2023-11-18T08:01:21;5.50;99.90
563;DHT22;266;49.514;8.294;2023-11-18T08:03:51;5.50;99.90
563;DHT22;266;49.514;8.294;2023-11-18T08:06:19;5.50;99.90
563;DHT22;266;49.514;8.294;2023-11-18T08:08:48;5.50;99.90
563;DHT22;266;49.514;8.294;2023-11-18T08:11:16;5.50;99.90
563;DHT22;266;49.514;8.294;2023-11-18T08:13:44;5.50;99.90
563;DHT22;266;49.514;8.294;2023-11-18T08:16:14;5.50;99.90
563;DHT22;266;49.514;8.294;2023-11-18T08:18:42;5.60;99.90
563;DHT22;266;49.514;8.294;2023-11-18T08:21:13;5.60;99.90
563;DHT22;266;49.514;8.294;2023-11-18T08:23:41;5.60;99.90
563;DHT22;266;49.514;8.294;2023-11-18T08:26:11;5.70;99.90
563;DHT22;266;49.514;8.294;2023-11-18T08:28:39;5.70;99.90
563;DHT22;266;49.514;8.294;2023-11-18T08:31:09;5.80;99.90
563;DHT22;266;49.514;8.294;2023-11-18T08:33:37;5.80;99.90
563;DHT22;266;49.514;8.294;2023-11-18T08:36:06;5.90;99.90
563;DHT22;266;49.514;8.294;2023-11-18T08:38:35;6.00;99.90
563;DHT22;266;49.514;8.294;2023-11-18T08:41:04;6.00;99.90
563;DHT22;266;49.514;8.294;2023-11-18T08:43:36;6.10;99.90
563;DHT22;266;49.514;8.294;2023-11-18T08:46:04;6.20;99.90
563;DHT22;266;49.514;8.294;2023-11-18T08:48:34;6.20;99.90
563;DHT22;266;49.514;8.294;2023-11-18T08:51:03;6.30;99.90
563;DHT22;266;49.514;8.294;2023-11-18T08:53:35;6.30;99.90
563;DHT22;266;49.514;8.294;2023-11-18T08:56:08;6.40;99.90
563;DHT22;266;49.514;8.294;2023-11-18T08:58:42;6.40;99.90
563;DHT22;266;49.514;8.294;2023-11-18T09:01:11;6.50;99.90
563;DHT22;266;49.514;8.294;2023-11-18T09:03:43;6.60;99.90
563;DHT22;266;49.514;8.294;2023-11-18T09:06:15;6.60;99.90
563;DHT22;266;49.514;8.294;2023-11-18T09:08:48;6.60;99.90
563;DHT22;266;49.514;8.294;2023-11-18T09:11:21;6.60;99.90
563;DHT22;266;49.514;8.294;2023-11-18T09:13:50;6.60;99.90
563;DHT22;266;49.514;8.294;2023-11-18T09:16:21;6.70;99.90
563;DHT22;266;49.514;8.294;2023-11-18T09:18:49;6.70;99.90
563;DHT22;266;49.514;8.294;2023-11-18T09:21:18;6.70;99.90
563;DHT22;266;49.514;8.294;2023-11-18T09:23:53;6.70;99.90
563;DHT22;266;49.514;8.294;2023-11-18T09:26:23;6.80;99.90
563;DHT22;266;49.514;8.294;2023-11-18T09:28:53;6.90;99.90
563;DHT22;266;49.514;8.294;2023-11-18T09:31:21;7.00;99.90
563;DHT22;266;49.514;8.294;2023-11-18T09:33:49;7.00;99.90
563;DHT22;266;49.514;8.294;2023-11-18T09:36:20;7.10;99.90
563;DHT22;266;49.514;8.294;2023-11-18T09:38:49;7.10;99.90
563;DHT22;266;49.514;8.294;2023-11-18T09:41:23;7.20;99.90
563;DHT22;266;49.514;8.294;2023-11-18T09:43:54;7.30;99.90
563;DHT22;266;49.514;8.294;2023-11-18T09:46:25;7.40;99.90
563;DHT22;266;49.514;8.294;2023-11-18T09:49:04;7.40;99.90
563;DHT22;266;49.514;8.294;2023-11-18T09:51:42;7.50;99.90
563;DHT22;266;49.514;8.294;2023-11-18T09:54:18;7.60;99.90
563;DHT22;266;49.514;8.294;2023-11-18T09:56:54;7.60;99.90
563;DHT22;266;49.514;8.294;2023-11-18T09:59:31;7.60;99.90
563;DHT22;266;49.514;8.294;2023-11-18T10:02:03;7.70;99.90
563;DHT22;266;49.514;8.294;2023-11-18T10:04:31;7.80;99.90
563;DHT22;266;49.514;8.294;2023-11-18T10:07:01;7.80;99.90
563;DHT22;266;49.514;8.294;2023-11-18T10:09:30;7.80;99.90
563;DHT22;266;49.514;8.294;2023-11-18T10:12:07;7.90;99.90
563;DHT22;266;49.514;8.294;2023-11-18T10:14:36;7.90;99.90
563;DHT22;266;49.514;8.294;2023-11-18T10:17:06;7.90;99.90
563;DHT22;266;49.514;8.294;2023-11-18T10:19:50;7.90;99.90
563;DHT22;266;49.514;8.294;2023-11-18T10:22:21;7.90;99.90
563;DHT22;266;49.514;8.294;2023-11-18T10:24:50;8.00;99.90
563;DHT22;266;49.514;8.294;2023-11-18T10:27:23;7.90;99.90
563;DHT22;266;49.514;8.294;2023-11-18T10:29:55;8.00;99.90
563;DHT22;266;49.514;8.294;2023-11-18T10:32:23;8.00;99.90
563;DHT22;266;49.514;8.294;2023-11-18T10:34:55;8.10;99.90
563;DHT22;266;49.514;8.294;2023-11-18T10:37:25;8.10;99.90
563;DHT22;266;49.514;8.294;2023-11-18T10:39:57;8.10;99.90
563;DHT22;266;49.514;8.294;2023-11-18T10:42:27;8.10;99.90
563;DHT22;266;49.514;8.294;2023-11-18T10:44:58;8.10;99.90
563;DHT22;266;49.514;8.294;2023-11-18T10:47:28;8.10;99.90
563;DHT22;266;49.514;8.294;2023-11-18T10:50:00;8.10;99.90
563;DHT22;266;49.514;8.294;2023-11-18T10:52:28;8.10;99.90
563;DHT22;266;49.514;8.294;2023-11-18T10:54:58;8.10;99.90
563;DHT22;266;49.514;8.294;2023-11-18T10:57:35;8.10;99.90
563;DHT22;266;49.514;8.294;2023-11-18T11:00:04;8.10;99.90
563;DHT22;266;49.514;8.294;2023-11-18T11:02:40;8.10;99.90
563;DHT22;266;49.514;8.294;2023-11-18T11:05:09;8.10;99.90
563;DHT22;266;49.514;8.294;2023-11-18T11:07:48;8.10;99.90
563;DHT22;266;49.514;8.294;2023-11-18T11:10:18;8.10;99.90
563;DHT22;266;49.514;8.294;2023-11-18T11:12:54;8.10;99.90
563;DHT22;266;49.514;8.294;2023-11-18T11:15:29;8.20;99.90
563;DHT22;266;49.514;8.294;2023-11-18T11:18:17;8.20;99.90
563;DHT22;266;49.514;8.294;2023-11-18T11:20:57;8.30;99.90
563;DHT22;266;49.514;8.294;2023-11-18T11:23:37;8.20;99.90
563;DHT22;266;49.514;8.294;2023-11-18T11:26:20;8.30;99.90
563;DHT22;266;49.514;8.294;2023-11-18T11:29:01;8.30;99.90
563;DHT22;266;49.514;8.294;2023-11-18T11:31:35;8.20;99.90
563;DHT22;266;49.514;8.294;2023-11-18T11:34:06;8.20;99.90
563;DHT22;266;49.514;8.294;2023-11-18T11:36:41;8.20;99.90
563;DHT22;266;49.514;8.294;2023-11-18T11:39:09;8.10;99.90
563;DHT22;266;49.514;8.294;2023-11-18T11:41:51;8.10;99.90
563;DHT22;266;49.514;8.294;2023-11-18T11:44:22;8.10;99.90
563;DHT22;266;49.514;8.294;2023-11-18T11:46:58;8.10;99.90
563;DHT22;266;49.514;8.294;2023-11-18T11:49:33;8.10;99.90
563;DHT22;266;49.514;8.294;2023-11-18T11:52:13;8.10;99.90
563;DHT22;266;49.514;8.294;2023-11-18T11:54:45;8.10;99.90
563;DHT22;266;49.514;8.294;2023-11-18T11:57:16;8.10;99.90
563;DHT22;266;49.514;8.294;2023-11-18T11:59:58;8.10;99.90
563;DHT22;266;49.514;8.294;2023-11-18T12:02:37;8.00;99.90
563;DHT22;266;49.514;8.294;2023-11-18T12:05:07;8.10;99.90
563;DHT22;266;49.514;8.294;2023-11-18T12:07:42;8.10;99.90
563;DHT22;266;49.514;8.294;2023-11-18T12:10:13;8.10;99.90
563;DHT22;266;49.514;8.294;2023-11-18T12:12:47;8.10;99.90
563;DHT22;266;49.514;8.294;2023-11-18T12:15:50;8.10;99.90
563;DHT22;266;49.514;8.294;2023-11-18T12:18:22;8.10;99.90
563;DHT22;266;49.514;8.294;2023-11-18T12:20:51;8.20;99.90
563;DHT22;266;49.514;8.294;2023-11-18T12:23:22;8.20;99.90
563;DHT22;266;49.514;8.294;2023-11-18T12:25:52;8.20;99.90
563;DHT22;266;49.514;8.294;2023-11-18T12:28:26;8.20;99.90
563;DHT22;266;49.514;8.294;2023-11-18T12:30:56;8.20;99.90
563;DHT22;266;49.514;8.294;2023-11-18T12:34:00;8.10;99.90
563;DHT22;266;49.514;8.294;2023-11-18T12:37:03;8.10;99.90
563;DHT22;266;49.514;8.294;2023-11-18T12:43:03;8.10;99.90
563;DHT22;266;49.514;8.294;2023-11-18T12:46:21;8.10;99.90
563;DHT22;266;49.514;8.294;2023-11-18T12:48:56;8.20;99.90
563;DHT22;266;49.514;8.294;2023-11-18T12:51:26;8.20;99.90
563;DHT22;266;49.514;8.294;2023-11-18T12:53:54;8.20;99.90
563;DHT22;266;49.514;8.294;2023-11-18T12:56:23;8.20;99.90
563;DHT22;266;49.514;8.294;2023-11-18T12:58:53;8.20;99.90
563;DHT22;266;49.514;8.294;2023-11-18T13:01:23;8.20;99.90
563;DHT22;266;49.514;8.294;2023-11-18T13:03:54;8.20;99.90
563;DHT22;266;49.514;8.294;2023-11-18T13:06:22;8.20;99.90
563;DHT22;266;49.514;8.294;2023-11-18T13:08:55;8.20;99.90
563;DHT22;266;49.514;8.294;2023-11-18T13:11:24;8.20;99.90
563;DHT22;266;49.514;8.294;2023-11-18T13:13:53;8.20;99.90
563;DHT22;266;49.514;8.294;2023-11-18T13:16:24;8.20;99.90
563;DHT22;266;49.514;8.294;2023-11-18T13:18:53;8.20;99.90
563;DHT22;266;49.514;8.294;2023-11-18T13:21:22;8.20;99.90
563;DHT22;266;49.514;8.294;2023-11-18T13:23:52;8.20;99.90
563;DHT22;266;49.514;8.294;2023-11-18T13:26:21;8.20;99.90
563;DHT22;266;49.514;8.294;2023-11-18T13:28:51;8.20;99.90
563;DHT22;266;49.514;8.294;2023-11-18T13:31:20;8.20;99.90
563;DHT22;266;49.514;8.294;2023-11-18T13:33:50;8.20;99.90
563;DHT22;266;49.514;8.294;2023-11-18T13:36:20;8.20;99.90
563;DHT22;266;49.514;8.294;2023-11-18T13:38:48;8.20;99.90
563;DHT22;266;49.514;8.294;2023-11-18T13:41:28;8.30;99.90
563;DHT22;266;49.514;8.294;2023-11-18T13:43:59;8.30;99.90
563;DHT22;266;49.514;8.294;2023-11-18T13:46:27;8.30;99.90
563;DHT22;266;49.514;8.294;2023-11-18T13:48:57;8.30;99.90
563;DHT22;266;49.514;8.294;2023-11-18T13:51:26;8.30;99.90
563;DHT22;266;49.514;8.294;2023-11-18T13:53:54;8.30;99.90
563;DHT22;266;49.514;8.294;2023-11-18T13:56:22;8.30;99.90
563;DHT22;266;49.514;8.294;2023-11-18T13:58:54;8.30;99.90
563;DHT22;266;49.514;8.294;2023-11-18T14:01:22;8.30;99.90
563;DHT22;266;49.514;8.294;2023-11-18T14:03:50;8.40;99.90
563;DHT22;266;49.514;8.294;2023-11-18T14:06:22;8.30;99.90
563;DHT22;266;49.514;8.294;2023-11-18T14:08:50;8.30;99.90
563;DHT22;266;49.514;8.294;2023-11-18T14:11:18;8.30;99.90
563;DHT22;266;49.514;8.294;2023-11-18T14:13:46;8.30;99.90
563;DHT22;266;49.514;8.294;2023-11-18T14:16:14;8.30;99.90
563;DHT22;266;49.514;8.294;2023-11-18T14:18:43;8.30;99.90
563;DHT22;266;49.514;8.294;2023-11-18T14:21:11;8.30;99.90
563;DHT22;266;49.514;8.294;2023-11-18T14:23:42;8.30;99.90
563;DHT22;266;49.514;8.294;2023-11-18T14:26:10;8.20;99.90
563;DHT22;266;49.514;8.294;2023-11-18T14:28:38;8.20;99.90
563;DHT22;266;49.514;8.294;2023-11-18T14:31:07;8.20;99.90
563;DHT22;266;49.514;8.294;2023-11-18T14:33:37;8.30;99.90
563;DHT22;266;49.514;8.294;2023-11-18T14:36:06;8.20;99.90
563;DHT22;266;49.514;8.294;2023-11-18T14:38:36;8.20;99.90
563;DHT22;266;49.514;8.294;2023-11-18T14:41:06;8.20;99.90
563;DHT22;266;49.514;8.294;2023-11-18T14:43:34;8.30;99.90
563;DHT22;266;49.514;8.294;2023-11-18T14:46:03;8.30;99.90
563;DHT22;266;49.514;8.294;2023-11-18T14:48:31;8.30;99.90
563;DHT22;266;49.514;8.294;2023-11-18T14:50:59;8.30;99.90
563;DHT22;266;49.514;8.294;2023-11-18T14:53:27;8.30;99.90
563;DHT22;266;49.514;8.294;2023-11-18T14:55:55;8.20;99.90
563;DHT22;266;49.514;8.294;2023-11-18T14:58:25;8.20;99.90
563;DHT22;266;49.514;8.294;2023-11-18T15:00:54;8.20;99.90
563;DHT22;266;49.514;8.294;2023-11-18T15:03:23;8.10;99.90
563;DHT22;266;49.514;8.294;2023-11-18T15:05:51;8.10;99.90
563;DHT22;266;49.514;8.294;2023-11-18T15:08:19;8.00;99.90
563;DHT22;266;49.514;8.294;2023-11-18T15:10:48;8.00;99.90
563;DHT22;266;49.514;8.294;2023-11-18T15:13:16;8.00;99.90
563;DHT22;266;49.514;8.294;2023-11-18T15:15:46;8.00;99.90
563;DHT22;266;49.514;8.294;2023-11-18T15:18:15;8.00;99.90
563;DHT22;266;49.514;8.294;2023-11-18T15:20:46;8.00;99.90
563;DHT22;266;49.514;8.294;2023-11-18T15:23:15;8.00;99.90
563;DHT22;266;49.514;8.294;2023-11-18T15:25:44;8.00;99.90
563;DHT22;266;49.514;8.294;2023-11-18T15:28:12;8.00;99.90
563;DHT22;266;49.514;8.294;2023-11-18T15:30:41;8.00;99.90
563;DHT22;266;49.514;8.294;2023-11-18T15:33:12;8.00;99.90
563;DHT22;266;49.514;8.294;2023-11-18T15:35:41;8.00;99.90
563;DHT22;266;49.514;8.294;2023-11-18T15:38:12;8.00;99.90
563;DHT22;266;49.514;8.294;2023-11-18T15:40:44;8.00;99.90
563;DHT22;266;49.514;8.294;2023-11-18T15:43:13;8.00;99.90
563;DHT22;266;49.514;8.294;2023-11-18T15:45:42;8.00;99.90
563;DHT22;266;49.514;8.294;2023-11-18T15:48:12;8.00;99.90
563;DHT22;266;49.514;8.294;2023-11-18T15:50:41;8.00;99.90
563;DHT22;266;49.514;8.294;2023-11-18T15:53:09;8.00;99.90
563;DHT22;266;49.514;8.294;2023-11-18T15:55:41;8.00;99.90
563;DHT22;266;49.514;8.294;2023-11-18T15:58:13;8.00;99.90
563;DHT22;266;49.514;8.294;2023-11-18T16:00:42;8.00;99.90
563;DHT22;266;49.514;8.294;2023-11-18T16:03:12;8.00;99.90
563;DHT22;266;49.514;8.294;2023-11-18T16:05:40;8.00;99.90
563;DHT22;266;49.514;8.294;2023-11-18T16:08:08;8.10;99.90
563;DHT22;266;49.514;8.294;2023-11-18T16:10:37;8.10;99.90
563;DHT22;266;49.514;8.294;2023-11-18T16:13:05;8.10;99.90
563;DHT22;266;49.514;8.294;2023-11-18T16:15:33;8.00;99.90
563;DHT22;266;49.514;8.294;2023-11-18T16:18:04;8.10;99.90
563;DHT22;266;49.514;8.294;2023-11-18T16:20:34;8.00;99.90
563;DHT22;266;49.514;8.294;2023-11-18T16:23:03;8.00;99.90
563;DHT22;266;49.514;8.294;2023-11-18T16:25:33;8.00;99.90
563;DHT22;266;49.514;8.294;2023-11-18T16:28:03;7.90;99.90
563;DHT22;266;49.514;8.294;2023-11-18T16:30:34;7.90;99.90
563;DHT22;266;49.514;8.294;2023-11-18T16:33:02;7.90;99.90
563;DHT22;266;49.514;8.294;2023-11-18T16:35:31;7.90;99.90
563;DHT22;266;49.514;8.294;2023-11-18T16:38:00;8.00;99.90
563;DHT22;266;49.514;8.294;2023-11-18T16:40:29;7.90;99.90
563;DHT22;266;49.514;8.294;2023-11-18T16:42:59;8.00;99.90
563;DHT22;266;49.514;8.294;2023-11-18T16:45:28;7.90;99.90
563;DHT22;266;49.514;8.294;2023-11-18T16:47:56;8.00;99.90
563;DHT22;266;49.514;8.294;2023-11-18T16:50:25;7.90;99.90
563;DHT22;266;49.514;8.294;2023-11-18T16:52:54;7.80;99.90
563;DHT22;266;49.514;8.294;2023-11-18T16:55:24;7.80;99.90
563;DHT22;266;49.514;8.294;2023-11-18T16:57:53;7.80;99.90
563;DHT22;266;49.514;8.294;2023-11-18T17:00:22;7.70;99.90
563;DHT22;266;49.514;8.294;2023-11-18T17:02:52;7.70;99.90
563;DHT22;266;49.514;8.294;2023-11-18T17:05:24;7.70;99.90
563;DHT22;266;49.514;8.294;2023-11-18T17:07:53;7.70;99.90
563;DHT22;266;49.514;8.294;2023-11-18T17:10:22;7.70;99.90
563;DHT22;266;49.514;8.294;2023-11-18T17:12:51;7.70;99.90
563;DHT22;266;49.514;8.294;2023-11-18T17:15:19;7.80;99.90